sensor_id;sensor_type;location;lat;lon;timestamp;temperature;humidity
20829;DHT22;10575;50.124;8.582;2023-06-04T00:01:33;16.10;68.00
20829;DHT22;10575;50.124;8.582;2023-06-04T00:03:58;16.00;68.50
20829;DHT22;10575;50.124;8.582;2023-06-04T00:06:24;16.00;68.90
20829;DHT22;10575;50.124;8.582;2023-06-04T00:08:49;15.90;69.20
20829;DHT22;10575;50.124;8.582;2023-06-04T00:11:15;15.90;70.00
20829;DHT22;10575;50.124;8.582;2023-06-04T00:13:40;15.90;69.70
20829;DHT22;10575;50.124;8.582;2023-06-04T00:16:06;15.90;69.10
20829;DHT22;10575;50.124;8.582;2023-06-04T00:18:31;15.90;69.80
20829;DHT22;10575;50.124;8.582;2023-06-04T00:20:57;15.80;69.40
20829;DHT22;10575;50.124;8.582;2023-06-04T00:23:23;15.80;68.90
20829;DHT22;10575;50.124;8.582;2023-06-04T00:25:48;15.70;69.00
20829;DHT22;10575;50.124;8.582;2023-06-04T00:28:14;15.70;69.60
20829;DHT22;10575;50.124;8.582;2023-06-04T00:30:39;15.70;69.70
20829;DHT22;10575;50.124;8.582;2023-06-04T00:33:05;15.70;70.80
20829;DHT22;10575;50.124;8.582;2023-06-04T00:35:32;15.70;70.90
20829;DHT22;10575;50.124;8.582;2023-06-04T00:37:58;15.70;70.70
20829;DHT22;10575;50.124;8.582;2023-06-04T00:40:23;15.70;71.20
20829;DHT22;10575;50.124;8.582;2023-06-04T00:42:49;15.70;71.20
20829;DHT22;10575;50.124;8.582;2023-06-04T00:45:15;15.70;71.80
20829;DHT22;10575;50.124;8.582;2023-06-04T00:47:41;15.60;71.10
20829;DHT22;10575;50.124;8.582;2023-06-04T00:50:07;15.50;70.70
20829;DHT22;10575;50.124;8.582;2023-06-04T00:52:33;15.50;72.00
20829;DHT22;10575;50.124;8.582;2023-06-04T00:54:59;15.50;71.60
20829;DHT22;10575;50.124;8.582;2023-06-04T00:57:24;15.70;70.80
20829;DHT22;10575;50.124;8.582;2023-06-04T00:59:50;15.70;71.90
20829;DHT22;10575;50.124;8.582;2023-06-04T01:02:18;15.60;71.20
20829;DHT22;10575;50.124;8.582;2023-06-04T01:05:04;15.50;71.90
20829;DHT22;10575;50.124;8.582;2023-06-04T01:07:35;15.60;71.80
20829;DHT22;10575;50.124;8.582;2023-06-04T01:10:01;15.60;72.20
20829;DHT22;10575;50.124;8.582;2023-06-04T01:12:26;15.60;72.60
20829;DHT22;10575;50.124;8.582;2023-06-04T01:14:52;15.60;72.50
20829;DHT22;10575;50.124;8.582;2023-06-04T01:17:31;15.70;72.80
20829;DHT22;10575;50.124;8.582;2023-06-04T01:25:25;15.50;73.30
20829;DHT22;10575;50.124;8.582;2023-06-04T01:27:54;15.50;73.80
20829;DHT22;10575;50.124;8.582;2023-06-04T01:30:25;15.40;72.40
20829;DHT22;10575;50.124;8.582;2023-06-04T01:32:53;15.30;74.60
20829;DHT22;10575;50.124;8.582;2023-06-04T01:35:19;15.30;74.40
20829;DHT22;10575;50.124;8.582;2023-06-04T01:37:44;15.20;74.90
20829;DHT22;10575;50.124;8.582;2023-06-04T01:40:10;15.20;74.90
20829;DHT22;10575;50.124;8.582;2023-06-04T01:42:36;15.10;74.80
20829;DHT22;10575;50.124;8.582;2023-06-04T01:45:02;15.00;75.40
20829;DHT22;10575;50.124;8.582;2023-06-04T01:47:27;15.00;75.20
20829;DHT22;10575;50.124;8.582;2023-06-04T01:49:53;15.00;74.30
20829;DHT22;10575;50.124;8.582;2023-06-04T01:52:18;14.90;75.30
20829;DHT22;10575;50.124;8.582;2023-06-04T01:54:46;14.80;75.60
20829;DHT22;10575;50.124;8.582;2023-06-04T01:57:14;14.70;76.40
20829;DHT22;10575;50.124;8.582;2023-06-04T01:59:39;14.60;76.60
20829;DHT22;10575;50.124;8.582;2023-06-04T02:02:06;14.60;77.20
20829;DHT22;10575;50.124;8.582;2023-06-04T02:04:32;14.80;76.40
20829;DHT22;10575;50.124;8.582;2023-06-04T02:06:57;14.80;76.70
20829;DHT22;10575;50.124;8.582;2023-06-04T02:09:25;14.70;77.30
20829;DHT22;10575;50.124;8.582;2023-06-04T02:11:51;14.60;77.70
20829;DHT22;10575;50.124;8.582;2023-06-04T02:14:16;14.70;77.80
20829;DHT22;10575;50.124;8.582;2023-06-04T02:16:42;14.60;76.80
20829;DHT22;10575;50.124;8.582;2023-06-04T02:19:07;14.60;77.80
20829;DHT22;10575;50.124;8.582;2023-06-04T02:21:33;14.50;77.70
20829;DHT22;10575;50.124;8.582;2023-06-04T02:23:58;14.50;77.60
20829;DHT22;10575;50.124;8.582;2023-06-04T02:26:24;14.50;78.30
20829;DHT22;10575;50.124;8.582;2023-06-04T02:28:50;14.40;77.60
20829;DHT22;10575;50.124;8.582;2023-06-04T02:31:16;14.40;77.90
20829;DHT22;10575;50.124;8.582;2023-06-04T02:33:41;14.30;79.20
20829;DHT22;10575;50.124;8.582;2023-06-04T02:36:07;14.20;78.70
20829;DHT22;10575;50.124;8.582;2023-06-04T02:38:34;14.20;78.80
20829;DHT22;10575;50.124;8.582;2023-06-04T02:41:00;14.10;78.50
20829;DHT22;10575;50.124;8.582;2023-06-04T02:43:25;14.10;79.50
20829;DHT22;10575;50.124;8.582;2023-06-04T02:45:51;14.10;79.80
20829;DHT22;10575;50.124;8.582;2023-06-04T02:48:16;14.20;79.10
20829;DHT22;10575;50.124;8.582;2023-06-04T02:50:42;14.20;79.60
20829;DHT22;10575;50.124;8.582;2023-06-04T02:53:10;14.20;78.90
20829;DHT22;10575;50.124;8.582;2023-06-04T02:55:35;14.30;80.70
20829;DHT22;10575;50.124;8.582;2023-06-04T02:58:01;14.10;80.80
20829;DHT22;10575;50.124;8.582;2023-06-04T03:00:27;14.00;80.30
20829;DHT22;10575;50.124;8.582;2023-06-04T03:02:53;14.00;80.20
20829;DHT22;10575;50.124;8.582;2023-06-04T03:05:26;13.90;81.20
20829;DHT22;10575;50.124;8.582;2023-06-04T03:07:52;13.90;81.70
20829;DHT22;10575;50.124;8.582;2023-06-04T03:10:18;13.90;81.90
20829;DHT22;10575;50.124;8.582;2023-06-04T03:12:44;14.10;81.60
20829;DHT22;10575;50.124;8.582;2023-06-04T03:15:10;14.20;81.40
20829;DHT22;10575;50.124;8.582;2023-06-04T03:17:36;14.20;81.40
20829;DHT22;10575;50.124;8.582;2023-06-04T03:20:02;14.30;81.30
20829;DHT22;10575;50.124;8.582;2023-06-04T03:22:29;14.20;81.70
20829;DHT22;10575;50.124;8.582;2023-06-04T03:24:55;14.20;81.60
20829;DHT22;10575;50.124;8.582;2023-06-04T03:27:21;14.10;82.50
20829;DHT22;10575;50.124;8.582;2023-06-04T03:29:46;14.00;81.00
20829;DHT22;10575;50.124;8.582;2023-06-04T03:32:13;13.90;82.30
20829;DHT22;10575;50.124;8.582;2023-06-04T03:34:39;13.90;82.50
20829;DHT22;10575;50.124;8.582;2023-06-04T03:37:04;14.00;82.60
20829;DHT22;10575;50.124;8.582;2023-06-04T03:39:30;14.00;83.10
20829;DHT22;10575;50.124;8.582;2023-06-04T03:41:56;14.00;82.70
20829;DHT22;10575;50.124;8.582;2023-06-04T03:44:22;14.10;82.20
20829;DHT22;10575;50.124;8.582;2023-06-04T03:46:47;14.10;83.20
20829;DHT22;10575;50.124;8.582;2023-06-04T03:49:13;14.00;82.70
20829;DHT22;10575;50.124;8.582;2023-06-04T03:51:40;14.10;81.60
20829;DHT22;10575;50.124;8.582;2023-06-04T03:54:06;14.20;82.00
20829;DHT22;10575;50.124;8.582;2023-06-04T03:56:32;14.30;82.00
20829;DHT22;10575;50.124;8.582;2023-06-04T03:58:57;14.30;80.90
20829;DHT22;10575;50.124;8.582;2023-06-04T04:01:23;14.30;82.50
20829;DHT22;10575;50.124;8.582;2023-06-04T04:03:49;14.20;81.70
20829;DHT22;10575;50.124;8.582;2023-06-04T04:06:16;14.00;81.70
20829;DHT22;10575;50.124;8.582;2023-06-04T04:08:42;14.00;83.00
20829;DHT22;10575;50.124;8.582;2023-06-04T04:11:09;14.00;82.40
20829;DHT22;10575;50.124;8.582;2023-06-04T04:13:35;13.90;83.60
20829;DHT22;10575;50.124;8.582;2023-06-04T04:16:00;13.80;84.10
20829;DHT22;10575;50.124;8.582;2023-06-04T04:18:26;14.00;84.40
20829;DHT22;10575;50.124;8.582;2023-06-04T04:20:52;13.90;85.00
20829;DHT22;10575;50.124;8.582;2023-06-04T04:23:17;14.00;85.00
20829;DHT22;10575;50.124;8.582;2023-06-04T04:25:43;14.10;83.50
20829;DHT22;10575;50.124;8.582;2023-06-04T04:28:14;14.20;85.30
20829;DHT22;10575;50.124;8.582;2023-06-04T04:30:40;14.10;83.30
20829;DHT22;10575;50.124;8.582;2023-06-04T04:33:05;14.20;84.50
20829;DHT22;10575;50.124;8.582;2023-06-04T04:35:32;14.10;84.60
20829;DHT22;10575;50.124;8.582;2023-06-04T04:38:00;14.20;84.00
20829;DHT22;10575;50.124;8.582;2023-06-04T04:40:29;14.40;83.70
20829;DHT22;10575;50.124;8.582;2023-06-04T04:42:54;14.40;83.50
20829;DHT22;10575;50.124;8.582;2023-06-04T04:45:20;14.40;83.50
20829;DHT22;10575;50.124;8.582;2023-06-04T04:47:46;14.60;84.20
20829;DHT22;10575;50.124;8.582;2023-06-04T04:50:12;14.50;83.50
20829;DHT22;10575;50.124;8.582;2023-06-04T04:52:38;14.50;83.50
20829;DHT22;10575;50.124;8.582;2023-06-04T04:55:04;14.60;84.70
20829;DHT22;10575;50.124;8.582;2023-06-04T04:57:29;14.50;84.20
20829;DHT22;10575;50.124;8.582;2023-06-04T04:59:55;14.40;84.70
20829;DHT22;10575;50.124;8.582;2023-06-04T05:02:21;14.40;84.20
20829;DHT22;10575;50.124;8.582;2023-06-04T05:04:46;14.40;83.80
20829;DHT22;10575;50.124;8.582;2023-06-04T05:07:12;14.50;83.50
20829;DHT22;10575;50.124;8.582;2023-06-04T05:09:37;14.50;82.90
20829;DHT22;10575;50.124;8.582;2023-06-04T05:12:03;14.60;84.50
20829;DHT22;10575;50.124;8.582;2023-06-04T05:14:29;14.60;84.10
20829;DHT22;10575;50.124;8.582;2023-06-04T05:16:55;14.80;84.20
20829;DHT22;10575;50.124;8.582;2023-06-04T05:19:23;15.00;83.50
20829;DHT22;10575;50.124;8.582;2023-06-04T05:21:50;15.10;82.70
20829;DHT22;10575;50.124;8.582;2023-06-04T05:24:16;15.20;82.50
20829;DHT22;10575;50.124;8.582;2023-06-04T05:26:41;15.30;83.30
20829;DHT22;10575;50.124;8.582;2023-06-04T05:29:07;15.30;81.10
20829;DHT22;10575;50.124;8.582;2023-06-04T05:31:33;15.40;83.30
20829;DHT22;10575;50.124;8.582;2023-06-04T05:34:00;15.60;80.90
20829;DHT22;10575;50.124;8.582;2023-06-04T05:36:29;15.60;80.40
20829;DHT22;10575;50.124;8.582;2023-06-04T05:38:55;15.70;80.30
20829;DHT22;10575;50.124;8.582;2023-06-04T05:41:27;16.00;80.00
20829;DHT22;10575;50.124;8.582;2023-06-04T05:43:53;16.10;78.40
20829;DHT22;10575;50.124;8.582;2023-06-04T05:46:19;16.40;78.70
20829;DHT22;10575;50.124;8.582;2023-06-04T05:48:44;16.90;75.60
20829;DHT22;10575;50.124;8.582;2023-06-04T05:51:12;18.40;71.20
20829;DHT22;10575;50.124;8.582;2023-06-04T05:53:38;19.70;67.50
20829;DHT22;10575;50.124;8.582;2023-06-04T05:56:03;20.90;63.30
20829;DHT22;10575;50.124;8.582;2023-06-04T05:58:29;21.70;61.40
20829;DHT22;10575;50.124;8.582;2023-06-04T06:00:55;22.00;60.00
20829;DHT22;10575;50.124;8.582;2023-06-04T06:03:21;22.40;59.90
20829;DHT22;10575;50.124;8.582;2023-06-04T06:05:46;22.40;59.40
20829;DHT22;10575;50.124;8.582;2023-06-04T06:08:13;23.40;58.80
20829;DHT22;10575;50.124;8.582;2023-06-04T06:10:39;24.60;54.70
20829;DHT22;10575;50.124;8.582;2023-06-04T06:13:04;25.80;53.60
20829;DHT22;10575;50.124;8.582;2023-06-04T06:15:30;27.60;50.50
20829;DHT22;10575;50.124;8.582;2023-06-04T06:17:55;29.20;48.30
20829;DHT22;10575;50.124;8.582;2023-06-04T06:20:21;28.90;46.10
20829;DHT22;10575;50.124;8.582;2023-06-04T06:22:47;30.50;43.50
20829;DHT22;10575;50.124;8.582;2023-06-04T06:25:13;29.30;43.50
20829;DHT22;10575;50.124;8.582;2023-06-04T06:27:39;29.90;43.50
20829;DHT22;10575;50.124;8.582;2023-06-04T06:30:07;30.10;43.80
20829;DHT22;10575;50.124;8.582;2023-06-04T06:32:33;28.40;43.40
20829;DHT22;10575;50.124;8.582;2023-06-04T06:34:58;27.80;47.10
20829;DHT22;10575;50.124;8.582;2023-06-04T06:37:24;27.20;45.60
20829;DHT22;10575;50.124;8.582;2023-06-04T06:39:49;26.60;46.30
20829;DHT22;10575;50.124;8.582;2023-06-04T06:42:15;26.00;46.50
20829;DHT22;10575;50.124;8.582;2023-06-04T06:44:43;25.00;47.70
20829;DHT22;10575;50.124;8.582;2023-06-04T06:47:09;25.70;49.00
20829;DHT22;10575;50.124;8.582;2023-06-04T06:49:35;27.50;47.20
20829;DHT22;10575;50.124;8.582;2023-06-04T06:52:01;28.90;45.50
20829;DHT22;10575;50.124;8.582;2023-06-04T06:54:27;31.60;41.20
20829;DHT22;10575;50.124;8.582;2023-06-04T06:56:52;33.50;36.10
20829;DHT22;10575;50.124;8.582;2023-06-04T06:59:18;36.20;34.90
20829;DHT22;10575;50.124;8.582;2023-06-04T07:01:44;36.60;32.40
20829;DHT22;10575;50.124;8.582;2023-06-04T07:04:09;38.30;29.70
20829;DHT22;10575;50.124;8.582;2023-06-04T07:06:35;39.50;28.70
20829;DHT22;10575;50.124;8.582;2023-06-04T07:09:01;37.70;29.00
20829;DHT22;10575;50.124;8.582;2023-06-04T07:11:28;36.00;30.30
20829;DHT22;10575;50.124;8.582;2023-06-04T07:13:54;35.50;30.20
20829;DHT22;10575;50.124;8.582;2023-06-04T07:16:19;34.70;30.70
20829;DHT22;10575;50.124;8.582;2023-06-04T07:18:47;35.50;32.40
20829;DHT22;10575;50.124;8.582;2023-06-04T07:21:14;36.30;30.60
20829;DHT22;10575;50.124;8.582;2023-06-04T07:23:40;35.30;29.70
20829;DHT22;10575;50.124;8.582;2023-06-04T07:26:05;36.90;29.80
20829;DHT22;10575;50.124;8.582;2023-06-04T07:28:31;40.10;27.70
20829;DHT22;10575;50.124;8.582;2023-06-04T07:30:57;39.20;27.10
20829;DHT22;10575;50.124;8.582;2023-06-04T07:33:24;39.10;27.20
20829;DHT22;10575;50.124;8.582;2023-06-04T07:35:50;40.50;26.60
20829;DHT22;10575;50.124;8.582;2023-06-04T07:38:15;39.80;25.70
20829;DHT22;10575;50.124;8.582;2023-06-04T07:40:41;38.00;26.20
20829;DHT22;10575;50.124;8.582;2023-06-04T07:43:07;39.20;26.60
20829;DHT22;10575;50.124;8.582;2023-06-04T07:45:32;41.40;25.00
20829;DHT22;10575;50.124;8.582;2023-06-04T07:47:58;40.80;25.20
20829;DHT22;10575;50.124;8.582;2023-06-04T07:50:24;40.90;25.60
20829;DHT22;10575;50.124;8.582;2023-06-04T07:52:50;40.60;26.00
20829;DHT22;10575;50.124;8.582;2023-06-04T07:55:16;40.10;26.10
20829;DHT22;10575;50.124;8.582;2023-06-04T07:57:42;41.80;25.10
20829;DHT22;10575;50.124;8.582;2023-06-04T08:00:08;40.80;25.30
20829;DHT22;10575;50.124;8.582;2023-06-04T08:02:34;41.20;25.30
20829;DHT22;10575;50.124;8.582;2023-06-04T08:05:00;42.10;25.00
20829;DHT22;10575;50.124;8.582;2023-06-04T08:07:27;43.20;24.20
20829;DHT22;10575;50.124;8.582;2023-06-04T08:09:53;45.40;22.70
20829;DHT22;10575;50.124;8.582;2023-06-04T08:12:18;41.80;24.40
20829;DHT22;10575;50.124;8.582;2023-06-04T08:14:44;42.60;23.80
20829;DHT22;10575;50.124;8.582;2023-06-04T08:17:10;42.10;24.10
20829;DHT22;10575;50.124;8.582;2023-06-04T08:19:35;42.30;23.70
20829;DHT22;10575;50.124;8.582;2023-06-04T08:22:01;44.10;23.20
20829;DHT22;10575;50.124;8.582;2023-06-04T08:24:27;43.90;23.70
20829;DHT22;10575;50.124;8.582;2023-06-04T08:26:52;43.70;22.60
20829;DHT22;10575;50.124;8.582;2023-06-04T08:29:18;43.40;23.30
20829;DHT22;10575;50.124;8.582;2023-06-04T08:31:44;41.90;23.50
20829;DHT22;10575;50.124;8.582;2023-06-04T08:34:10;43.20;23.50
20829;DHT22;10575;50.124;8.582;2023-06-04T08:36:35;44.20;22.80
20829;DHT22;10575;50.124;8.582;2023-06-04T08:39:01;44.80;21.90
20829;DHT22;10575;50.124;8.582;2023-06-04T08:41:44;46.30;21.20
20829;DHT22;10575;50.124;8.582;2023-06-04T08:44:10;45.30;21.30
20829;DHT22;10575;50.124;8.582;2023-06-04T08:46:38;45.90;21.40
20829;DHT22;10575;50.124;8.582;2023-06-04T08:49:33;47.80;20.30
20829;DHT22;10575;50.124;8.582;2023-06-04T08:52:02;46.00;20.80
20829;DHT22;10575;50.124;8.582;2023-06-04T08:54:30;47.30;20.40
20829;DHT22;10575;50.124;8.582;2023-06-04T08:56:57;47.30;20.70
20829;DHT22;10575;50.124;8.582;2023-06-04T08:59:23;45.00;21.90
20829;DHT22;10575;50.124;8.582;2023-06-04T09:01:53;43.80;22.40
20829;DHT22;10575;50.124;8.582;2023-06-04T09:04:19;45.20;21.10
20829;DHT22;10575;50.124;8.582;2023-06-04T09:06:44;45.40;21.60
20829;DHT22;10575;50.124;8.582;2023-06-04T09:09:12;45.30;22.40
20829;DHT22;10575;50.124;8.582;2023-06-04T09:11:55;45.00;21.90
20829;DHT22;10575;50.124;8.582;2023-06-04T09:14:21;44.70;21.10
20829;DHT22;10575;50.124;8.582;2023-06-04T09:16:51;45.60;21.00
20829;DHT22;10575;50.124;8.582;2023-06-04T09:19:18;45.30;20.90
20829;DHT22;10575;50.124;8.582;2023-06-04T09:21:55;43.80;21.90
20829;DHT22;10575;50.124;8.582;2023-06-04T09:24:22;41.00;23.40
20829;DHT22;10575;50.124;8.582;2023-06-04T09:26:49;39.80;23.50
20829;DHT22;10575;50.124;8.582;2023-06-04T09:29:15;38.10;26.30
20829;DHT22;10575;50.124;8.582;2023-06-04T09:31:44;36.40;27.90
20829;DHT22;10575;50.124;8.582;2023-06-04T09:34:09;34.40;30.30
20829;DHT22;10575;50.124;8.582;2023-06-04T09:36:35;32.50;32.30
20829;DHT22;10575;50.124;8.582;2023-06-04T09:39:03;30.70;33.50
20829;DHT22;10575;50.124;8.582;2023-06-04T09:41:29;29.30;34.20
20829;DHT22;10575;50.124;8.582;2023-06-04T09:44:02;28.70;35.30
20829;DHT22;10575;50.124;8.582;2023-06-04T09:46:28;29.00;35.60
20829;DHT22;10575;50.124;8.582;2023-06-04T09:49:00;29.10;36.50
20829;DHT22;10575;50.124;8.582;2023-06-04T09:51:26;28.70;33.80
20829;DHT22;10575;50.124;8.582;2023-06-04T09:53:59;28.40;37.50
20829;DHT22;10575;50.124;8.582;2023-06-04T09:56:25;28.50;37.90
20829;DHT22;10575;50.124;8.582;2023-06-04T09:58:57;28.20;39.80
20829;DHT22;10575;50.124;8.582;2023-06-04T10:01:26;28.10;37.10
20829;DHT22;10575;50.124;8.582;2023-06-04T10:03:52;28.20;38.30
20829;DHT22;10575;50.124;8.582;2023-06-04T10:06:19;27.90;37.90
20829;DHT22;10575;50.124;8.582;2023-06-04T10:08:46;27.70;37.00
20829;DHT22;10575;50.124;8.582;2023-06-04T10:11:13;27.70;40.90
20829;DHT22;10575;50.124;8.582;2023-06-04T10:13:57;27.10;37.60
20829;DHT22;10575;50.124;8.582;2023-06-04T10:16:25;26.70;40.50
20829;DHT22;10575;50.124;8.582;2023-06-04T10:18:52;26.70;38.20
20829;DHT22;10575;50.124;8.582;2023-06-04T10:21:21;26.40;37.40
20829;DHT22;10575;50.124;8.582;2023-06-04T10:23:47;26.30;37.90
20829;DHT22;10575;50.124;8.582;2023-06-04T10:26:14;26.70;39.40
20829;DHT22;10575;50.124;8.582;2023-06-04T10:28:41;26.80;35.70
20829;DHT22;10575;50.124;8.582;2023-06-04T10:31:12;26.70;37.40
20829;DHT22;10575;50.124;8.582;2023-06-04T10:33:38;26.60;38.60
20829;DHT22;10575;50.124;8.582;2023-06-04T10:36:23;26.80;36.00
20829;DHT22;10575;50.124;8.582;2023-06-04T10:38:53;26.60;35.40
20829;DHT22;10575;50.124;8.582;2023-06-04T10:41:20;26.50;35.40
20829;DHT22;10575;50.124;8.582;2023-06-04T10:43:50;26.40;35.90
20829;DHT22;10575;50.124;8.582;2023-06-04T10:46:17;26.40;39.20
20829;DHT22;10575;50.124;8.582;2023-06-04T10:48:51;26.30;37.90
20829;DHT22;10575;50.124;8.582;2023-06-04T10:51:29;26.20;37.00
20829;DHT22;10575;50.124;8.582;2023-06-04T10:53:57;26.10;37.10
20829;DHT22;10575;50.124;8.582;2023-06-04T10:56:31;25.90;36.00
20829;DHT22;10575;50.124;8.582;2023-06-04T10:59:16;25.70;36.90
20829;DHT22;10575;50.124;8.582;2023-06-04T11:01:42;25.60;36.80
20829;DHT22;10575;50.124;8.582;2023-06-04T11:04:28;25.90;38.10
20829;DHT22;10575;50.124;8.582;2023-06-04T11:07:04;25.90;37.60
20829;DHT22;10575;50.124;8.582;2023-06-04T11:09:34;25.80;37.70
20829;DHT22;10575;50.124;8.582;2023-06-04T11:12:01;25.50;38.40
20829;DHT22;10575;50.124;8.582;2023-06-04T11:14:27;25.50;41.00
20829;DHT22;10575;50.124;8.582;2023-06-04T11:16:53;25.70;39.20
20829;DHT22;10575;50.124;8.582;2023-06-04T11:19:18;25.80;38.80
20829;DHT22;10575;50.124;8.582;2023-06-04T11:21:45;25.70;39.10
20829;DHT22;10575;50.124;8.582;2023-06-04T11:24:12;26.00;38.00
20829;DHT22;10575;50.124;8.582;2023-06-04T11:26:38;26.10;41.60
20829;DHT22;10575;50.124;8.582;2023-06-04T11:29:09;25.90;38.60
20829;DHT22;10575;50.124;8.582;2023-06-04T11:31:47;25.70;36.80
20829;DHT22;10575;50.124;8.582;2023-06-04T11:34:25;25.50;38.60
20829;DHT22;10575;50.124;8.582;2023-06-04T11:36:51;25.60;41.60
20829;DHT22;10575;50.124;8.582;2023-06-04T11:39:20;25.60;37.90
20829;DHT22;10575;50.124;8.582;2023-06-04T11:41:47;25.50;37.60
20829;DHT22;10575;50.124;8.582;2023-06-04T11:44:13;25.60;39.60
20829;DHT22;10575;50.124;8.582;2023-06-04T11:46:42;25.90;41.10
20829;DHT22;10575;50.124;8.582;2023-06-04T11:49:15;25.90;39.50
20829;DHT22;10575;50.124;8.582;2023-06-04T11:51:47;25.80;38.50
20829;DHT22;10575;50.124;8.582;2023-06-04T11:54:14;25.60;38.70
20829;DHT22;10575;50.124;8.582;2023-06-04T11:56:40;25.40;39.40
20829;DHT22;10575;50.124;8.582;2023-06-04T11:59:06;25.40;42.40
20829;DHT22;10575;50.124;8.582;2023-06-04T12:01:32;25.50;42.90
20829;DHT22;10575;50.124;8.582;2023-06-04T12:03:58;25.90;43.40
20829;DHT22;10575;50.124;8.582;2023-06-04T12:06:23;26.10;42.40
20829;DHT22;10575;50.124;8.582;2023-06-04T12:08:54;26.00;39.70
20829;DHT22;10575;50.124;8.582;2023-06-04T12:11:32;25.90;39.20
20829;DHT22;10575;50.124;8.582;2023-06-04T12:14:04;26.10;40.60
20829;DHT22;10575;50.124;8.582;2023-06-04T12:16:30;25.90;39.40
20829;DHT22;10575;50.124;8.582;2023-06-04T12:19:09;26.10;40.00
20829;DHT22;10575;50.124;8.582;2023-06-04T12:21:35;25.90;38.50
20829;DHT22;10575;50.124;8.582;2023-06-04T12:24:12;25.80;39.90
20829;DHT22;10575;50.124;8.582;2023-06-04T12:26:42;25.70;39.70
20829;DHT22;10575;50.124;8.582;2023-06-04T12:29:17;25.70;39.00
20829;DHT22;10575;50.124;8.582;2023-06-04T12:31:45;25.60;38.70
20829;DHT22;10575;50.124;8.582;2023-06-04T12:34:14;25.50;39.60
20829;DHT22;10575;50.124;8.582;2023-06-04T12:36:40;25.60;39.50
20829;DHT22;10575;50.124;8.582;2023-06-04T12:39:06;25.60;38.90
20829;DHT22;10575;50.124;8.582;2023-06-04T12:41:32;25.60;38.80
20829;DHT22;10575;50.124;8.582;2023-06-04T12:44:01;25.50;38.10
20829;DHT22;10575;50.124;8.582;2023-06-04T12:46:27;25.50;39.00
20829;DHT22;10575;50.124;8.582;2023-06-04T12:48:54;25.50;38.00
20829;DHT22;10575;50.124;8.582;2023-06-04T12:51:20;25.40;39.10
20829;DHT22;10575;50.124;8.582;2023-06-04T12:53:47;25.30;38.40
20829;DHT22;10575;50.124;8.582;2023-06-04T12:56:13;25.30;38.10
20829;DHT22;10575;50.124;8.582;2023-06-04T12:58:38;25.20;37.40
20829;DHT22;10575;50.124;8.582;2023-06-04T13:01:04;25.30;42.50
20829;DHT22;10575;50.124;8.582;2023-06-04T13:03:30;25.50;41.20
20829;DHT22;10575;50.124;8.582;2023-06-04T13:05:56;25.60;37.90
20829;DHT22;10575;50.124;8.582;2023-06-04T13:08:22;25.60;39.40
20829;DHT22;10575;50.124;8.582;2023-06-04T13:10:49;25.60;39.60
20829;DHT22;10575;50.124;8.582;2023-06-04T13:13:15;25.80;38.90
20829;DHT22;10575;50.124;8.582;2023-06-04T13:15:42;25.70;41.70
20829;DHT22;10575;50.124;8.582;2023-06-04T13:18:08;25.70;38.30
20829;DHT22;10575;50.124;8.582;2023-06-04T13:20:35;25.60;39.50
20829;DHT22;10575;50.124;8.582;2023-06-04T13:23:00;25.60;38.90
20829;DHT22;10575;50.124;8.582;2023-06-04T13:25:26;25.70;38.30
20829;DHT22;10575;50.124;8.582;2023-06-04T13:27:54;25.80;38.00
20829;DHT22;10575;50.124;8.582;2023-06-04T13:30:20;25.50;38.40
20829;DHT22;10575;50.124;8.582;2023-06-04T13:32:46;25.50;37.80
20829;DHT22;10575;50.124;8.582;2023-06-04T13:35:11;25.50;38.20
20829;DHT22;10575;50.124;8.582;2023-06-04T13:37:37;25.40;38.20
20829;DHT22;10575;50.124;8.582;2023-06-04T13:40:03;25.50;37.70
20829;DHT22;10575;50.124;8.582;2023-06-04T13:42:28;25.40;39.30
20829;DHT22;10575;50.124;8.582;2023-06-04T13:44:54;25.40;39.90
20829;DHT22;10575;50.124;8.582;2023-06-04T13:47:19;25.40;40.60
20829;DHT22;10575;50.124;8.582;2023-06-04T13:49:46;25.40;37.80
20829;DHT22;10575;50.124;8.582;2023-06-04T13:52:12;25.40;37.30
20829;DHT22;10575;50.124;8.582;2023-06-04T13:54:38;25.30;39.20
20829;DHT22;10575;50.124;8.582;2023-06-04T13:57:03;25.30;40.20
20829;DHT22;10575;50.124;8.582;2023-06-04T13:59:29;25.40;38.90
20829;DHT22;10575;50.124;8.582;2023-06-04T14:01:56;25.60;38.50
20829;DHT22;10575;50.124;8.582;2023-06-04T14:04:22;25.50;39.00
20829;DHT22;10575;50.124;8.582;2023-06-04T14:06:47;25.40;39.00
20829;DHT22;10575;50.124;8.582;2023-06-04T14:09:13;25.30;39.50
20829;DHT22;10575;50.124;8.582;2023-06-04T14:11:39;25.20;39.10
20829;DHT22;10575;50.124;8.582;2023-06-04T14:14:05;25.20;38.80
20829;DHT22;10575;50.124;8.582;2023-06-04T14:16:31;25.30;37.80
20829;DHT22;10575;50.124;8.582;2023-06-04T14:18:56;25.40;38.70
20829;DHT22;10575;50.124;8.582;2023-06-04T14:21:22;25.40;38.40
20829;DHT22;10575;50.124;8.582;2023-06-04T14:23:47;25.50;40.00
20829;DHT22;10575;50.124;8.582;2023-06-04T14:26:14;25.40;39.90
20829;DHT22;10575;50.124;8.582;2023-06-04T14:28:42;25.40;39.80
20829;DHT22;10575;50.124;8.582;2023-06-04T14:31:07;25.50;39.60
20829;DHT22;10575;50.124;8.582;2023-06-04T14:33:33;25.70;38.60
20829;DHT22;10575;50.124;8.582;2023-06-04T14:36:00;25.60;38.40
20829;DHT22;10575;50.124;8.582;2023-06-04T14:38:26;25.50;38.80
20829;DHT22;10575;50.124;8.582;2023-06-04T14:40:51;25.40;39.00
20829;DHT22;10575;50.124;8.582;2023-06-04T14:43:17;25.40;39.40
20829;DHT22;10575;50.124;8.582;2023-06-04T14:45:42;25.30;40.10
20829;DHT22;10575;50.124;8.582;2023-06-04T14:48:08;25.20;39.30
20829;DHT22;10575;50.124;8.582;2023-06-04T14:50:34;25.20;39.50
20829;DHT22;10575;50.124;8.582;2023-06-04T14:53:00;25.10;39.40
20829;DHT22;10575;50.124;8.582;2023-06-04T14:55:26;25.10;39.80
20829;DHT22;10575;50.124;8.582;2023-06-04T14:57:51;25.20;38.20
20829;DHT22;10575;50.124;8.582;2023-06-04T15:00:17;25.40;38.50
20829;DHT22;10575;50.124;8.582;2023-06-04T15:02:42;25.50;38.00
20829;DHT22;10575;50.124;8.582;2023-06-04T15:05:08;25.50;39.20
20829;DHT22;10575;50.124;8.582;2023-06-04T15:07:34;25.60;39.40
20829;DHT22;10575;50.124;8.582;2023-06-04T15:09:59;25.50;38.70
20829;DHT22;10575;50.124;8.582;2023-06-04T15:12:27;25.50;40.20
20829;DHT22;10575;50.124;8.582;2023-06-04T15:14:53;25.40;39.00
20829;DHT22;10575;50.124;8.582;2023-06-04T15:17:18;25.20;39.20
20829;DHT22;10575;50.124;8.582;2023-06-04T15:19:44;25.10;40.50
20829;DHT22;10575;50.124;8.582;2023-06-04T15:22:09;25.10;40.00
20829;DHT22;10575;50.124;8.582;2023-06-04T15:24:35;25.10;40.50
20829;DHT22;10575;50.124;8.582;2023-06-04T15:27:01;25.30;40.50
20829;DHT22;10575;50.124;8.582;2023-06-04T15:29:26;25.40;41.00
20829;DHT22;10575;50.124;8.582;2023-06-04T15:31:52;25.30;37.60
20829;DHT22;10575;50.124;8.582;2023-06-04T15:34:17;25.20;38.40